Reading, Minnesota
Current Conditions -  °F | °C
As of 12:35 PM on Friday 28 Nov 2014 (Local Time) from KOTG Reporting Station
Clear Clear  
Wind Chill: 17°   Ceiling: Unl
Heat Index: 27°   Visibility: 10mi
Dew Point: 21°   Wind: 10mph
Humidity: 80%   Direction: 140°SE
Pressure: 29.75"   Gusts: NA
Location:  43.7°N, 95.71°W
Report Text: KOTG 281835Z AUTO 14009KT 10SM CLR M03/M06 A2975 RMK AO1
Loading
Personal Weather Stations






























Interactive Weather Map New forecast layout! Learn more

10-Day Weather Forecast

Advertisements
Track Severe Weather on mobile